EKBI/BLL METAR and TAF weather

Enter ICAO airport designator
Station Type Date Time Source
EKBI METAR 2020/01/21 15:20 UTC NOAA

EKBI 211520Z AUTO 26014KT 2200 -RA BR OVC003/// 07/07 Q1033


Station Type Date Time Source
EKBI Decoded METAR 2020/01/21 15:20 UTC NOAA

Billund Lufthavn, Denmark (EKBI) 55-44N 009-10E 79M
Jan 21, 2020 - 10:20 AM EST / 2020.01.21 1520 UTC
Wind: from the W (260 degrees) at 16 MPH (14 KT):0
Visibility: 1 mile(s):0
Sky conditions: overcast
Weather: light rain; mist
Temperature: 44 F (7 C)
Dew Point: 44 F (7 C)
Relative Humidity: 100%
Pressure (altimeter): 30.50 in. Hg (1033 hPa)
ob: EKBI 211520Z AUTO 26014KT 2200 -RA BR OVC003/// 07/07 Q1033
cycle: 15

Station Type Date Time Source
EKBI TAF 2020/01/21 12:09 UTC NOAA

TAF EKBI 211102Z 2112/2212 26015KT 2000 -RADZ BR BKN003
TEMPO 2112/2118 5000 BKN005
BECMG 2118/2120 30012KT 9999 NSW SCT020
BECMG 2206/2208 32010KT

Example: see airport list